Time;durP1;ratioP1;P1;durP2;ratioP2;P2;SDS_P1;SDS_P2;PMS_P1;PMS_P2;Temp;Humidity;BMP_temperature;BMP_pressure;BME280_temperature;BME280_humidity;BME280_pressure;Samples;Min_cycle;Max_cycle;Signal;HPM_P1;HPM_P2
2023/04/19 00:00:28;;;;;;;11.30;7.35;;;;;;;-144.57;100.00;62443.72;5061551;28;20044;-66
2023/04/19 00:02:54;;;;;;;11.70;7.20;;;;;;;-144.57;100.00;62443.72;5034093;28;20059;-65
2023/04/19 00:05:23;;;;;;;12.15;7.53;;;;;;;-144.57;100.00;62443.72;5061397;28;20067;-67
2023/04/19 00:07:50;;;;;;;13.43;7.40;;;;;;;-144.57;100.00;62443.72;5052376;28;20037;-67
2023/04/19 00:10:16;;;;;;;12.38;7.57;;;;;;;-144.57;100.00;62443.72;5052004;28;20132;-66
2023/04/19 00:12:42;;;;;;;12.10;7.15;;;;;;;-144.57;100.00;62443.72;5051729;28;20132;-66
2023/04/19 00:15:08;;;;;;;12.73;7.32;;;;;;;-144.57;100.00;62443.72;5052433;28;20045;-67
2023/04/19 00:17:34;;;;;;;15.02;7.28;;;;;;;-144.57;100.00;62443.72;5052123;28;20041;-69
2023/04/19 00:20:00;;;;;;;12.50;7.18;;;;;;;-144.57;100.00;62443.72;5052270;28;20047;-67
2023/04/19 00:22:25;;;;;;;12.05;7.60;;;;;;;-144.57;100.00;62443.72;5051978;28;20585;-67
2023/04/19 00:24:52;;;;;;;8.50;6.57;;;;;;;-144.57;100.00;62443.72;5051701;28;20049;-67
2023/04/19 00:27:18;;;;;;;11.30;7.30;;;;;;;-144.57;100.00;62443.72;5052057;28;20045;-67
2023/04/19 00:29:44;;;;;;;10.57;6.65;;;;;;;-144.57;100.00;62443.72;5050591;28;20057;-66
2023/04/19 00:32:10;;;;;;;11.52;7.07;;;;;;;-144.57;100.00;62443.72;5050491;28;20063;-67
2023/04/19 00:34:36;;;;;;;8.68;6.40;;;;;;;-144.57;100.00;62443.72;5050355;28;20053;-67
2023/04/19 00:37:05;;;;;;;11.48;7.57;;;;;;;-144.57;100.00;62443.72;5051585;28;20530;-68
2023/04/19 00:39:32;;;;;;;11.82;7.13;;;;;;;-144.57;100.00;62443.72;5017787;28;20503;-67
2023/04/19 00:41:57;;;;;;;11.30;6.72;;;;;;;-144.57;100.00;62443.72;5065006;28;20473;-69
2023/04/19 00:44:23;;;;;;;13.15;7.55;;;;;;;-144.57;100.00;62443.72;5071825;28;20474;-67
2023/04/19 00:46:49;;;;;;;10.10;6.97;;;;;;;-144.57;100.00;62443.72;5044575;28;20043;-68
2023/04/19 00:49:17;;;;;;;9.32;6.55;;;;;;;-144.57;100.00;62443.72;5035051;28;20144;-67
2023/04/19 00:51:43;;;;;;;11.90;7.20;;;;;;;-144.57;100.00;62443.72;5069699;28;20036;-66
2023/04/19 00:54:09;;;;;;;8.52;6.57;;;;;;;-144.57;100.00;62443.72;5064798;28;20048;-67
2023/04/19 00:56:35;;;;;;;8.93;6.47;;;;;;;-144.57;100.00;62443.72;5033351;28;20033;-67
2023/04/19 00:59:01;;;;;;;12.32;7.03;;;;;;;-144.57;100.00;62443.72;5033635;28;20056;-67
2023/04/19 01:01:27;;;;;;;8.60;6.53;;;;;;;-144.57;100.00;62443.72;5051509;28;20097;-66
2023/04/19 01:03:54;;;;;;;10.73;6.70;;;;;;;-144.57;100.00;62443.72;5068072;28;20049;-66
2023/04/19 01:06:20;;;;;;;10.98;6.47;;;;;;;-144.57;100.00;62443.72;5070273;28;20557;-67
2023/04/19 01:08:45;;;;;;;12.38;6.35;;;;;;;-144.57;100.00;62443.72;5070227;28;20135;-66
2023/04/19 01:11:11;;;;;;;9.77;6.57;;;;;;;-144.57;100.00;62443.72;5070056;28;20037;-66
2023/04/19 01:13:37;;;;;;;9.85;6.15;;;;;;;-144.57;100.00;62443.72;5071340;28;20052;-66
2023/04/19 01:16:03;;;;;;;11.68;6.25;;;;;;;-144.57;100.00;62443.72;5053231;28;20422;-66
2023/04/19 01:18:34;;;;;;;16.33;7.18;;;;;;;-144.57;100.00;62443.72;5053501;28;20044;-67
2023/04/19 01:21:00;;;;;;;9.45;6.40;;;;;;;-144.57;100.00;62443.72;5036077;28;20052;-66
2023/04/19 01:23:26;;;;;;;13.98;7.32;;;;;;;-144.57;100.00;62443.72;5051309;28;20049;-67
2023/04/19 01:25:52;;;;;;;11.30;6.38;;;;;;;-144.57;100.00;62443.72;5049887;28;20048;-66
2023/04/19 01:28:17;;;;;;;10.63;6.60;;;;;;;-144.57;100.00;62443.72;5049666;28;20102;-66
2023/04/19 01:30:43;;;;;;;12.80;6.88;;;;;;;-144.57;100.00;62443.72;5050917;28;20068;-67
2023/04/19 01:33:09;;;;;;;8.85;6.30;;;;;;;-144.57;100.00;62443.72;5049568;28;20068;-68
2023/04/19 01:35:35;;;;;;;9.77;6.20;;;;;;;-144.57;100.00;62443.72;5051165;28;20041;-67
2023/04/19 01:38:01;;;;;;;11.63;6.25;;;;;;;-144.57;100.00;62443.72;5050856;28;20037;-66
2023/04/19 01:40:26;;;;;;;7.72;6.30;;;;;;;-144.57;100.00;62443.72;5049529;28;20139;-67
2023/04/19 01:42:52;;;;;;;10.68;6.25;;;;;;;-144.57;100.00;62443.72;5050606;28;20068;-66
2023/04/19 01:45:19;;;;;;;10.18;6.30;;;;;;;-144.57;100.00;62443.72;5051032;28;20037;-67
2023/04/19 01:47:45;;;;;;;13.02;6.55;;;;;;;-144.57;100.00;62443.72;5069119;28;20044;-67
2023/04/19 01:50:10;;;;;;;17.25;6.50;;;;;;;-144.57;100.00;62443.72;5069446;28;20063;-67
2023/04/19 01:52:36;;;;;;;11.23;7.05;;;;;;;-144.57;100.00;62443.72;5052912;28;20048;-69
2023/04/19 01:55:04;;;;;;;10.43;6.68;;;;;;;-144.57;100.00;62443.72;5036298;28;20488;-66
2023/04/19 01:57:30;;;;;;;8.55;6.28;;;;;;;-144.57;100.00;62443.72;5053263;28;20040;-66
2023/04/19 01:59:56;;;;;;;14.65;7.20;;;;;;;-144.57;100.00;62443.72;5052841;28;20044;-66
2023/04/19 02:02:22;;;;;;;13.52;6.35;;;;;;;-144.57;100.00;62443.72;5066938;28;20051;-68
2023/04/19 02:04:47;;;;;;;17.92;7.05;;;;;;;-144.57;100.00;62443.72;5042446;28;20049;-66
2023/04/19 02:07:14;;;;;;;9.75;6.68;;;;;;;-144.57;100.00;62443.72;5070235;28;20036;-66
2023/04/19 02:09:40;;;;;;;9.10;6.65;;;;;;;-144.57;100.00;62443.72;5088437;28;20040;-66
2023/04/19 02:12:06;;;;;;;7.93;6.45;;;;;;;-144.57;100.00;62443.72;5053452;28;20043;-67
2023/04/19 02:14:31;;;;;;;14.13;6.45;;;;;;;-144.57;100.00;62443.72;5053084;28;20144;-66
2023/04/19 02:16:57;;;;;;;12.98;6.80;;;;;;;-144.57;100.00;62443.72;5054706;28;20033;-68
2023/04/19 02:19:23;;;;;;;14.40;6.95;;;;;;;-144.57;100.00;62443.72;5047472;28;20072;-67
2023/04/19 02:21:49;;;;;;;10.63;6.30;;;;;;;-144.57;100.00;62443.72;5073129;28;20394;-68
2023/04/19 02:24:15;;;;;;;13.15;6.30;;;;;;;-144.57;100.00;62443.72;5074349;28;20128;-66
2023/04/19 02:26:41;;;;;;;10.20;6.25;;;;;;;-144.57;100.00;62443.72;5039714;28;20069;-66
2023/04/19 02:29:07;;;;;;;14.63;6.25;;;;;;;-144.57;100.00;62443.72;5072708;28;20052;-67
2023/04/19 02:31:33;;;;;;;12.15;6.05;;;;;;;-144.57;100.00;62443.72;5056231;28;20032;-66
2023/04/19 02:33:59;;;;;;;13.15;6.72;;;;;;;-144.57;100.00;62443.72;5074198;28;20049;-67
2023/04/19 02:36:25;;;;;;;9.88;6.15;;;;;;;-144.57;100.00;62443.72;5062608;28;20041;-66
2023/04/19 02:38:51;;;;;;;10.38;6.43;;;;;;;-144.57;100.00;62443.72;5052556;28;20084;-65
2023/04/19 02:41:19;;;;;;;10.15;6.47;;;;;;;-144.57;100.00;62443.72;5052279;28;20175;-67
2023/04/19 02:43:45;;;;;;;11.35;6.30;;;;;;;-144.57;100.00;62443.72;5053892;28;20508;-67
2023/04/19 02:46:12;;;;;;;7.97;5.78;;;;;;;-144.57;100.00;62443.72;5053943;28;20099;-67
2023/04/19 02:48:37;;;;;;;10.50;6.20;;;;;;;-144.57;100.00;62443.72;5053929;28;20076;-67
2023/04/19 02:51:04;;;;;;;13.32;6.57;;;;;;;-144.57;100.00;62443.72;5052619;28;20041;-67
2023/04/19 02:53:30;;;;;;;12.40;5.93;;;;;;;-144.57;100.00;62443.72;5052350;28;20131;-66
2023/04/19 02:55:56;;;;;;;10.93;6.30;;;;;;;-144.57;100.00;62443.72;5052096;28;20131;-66
2023/04/19 02:58:22;;;;;;;12.77;6.35;;;;;;;-144.57;100.00;62443.72;5052357;28;20099;-66
2023/04/19 03:01:00;;;;;;;9.30;6.05;;;;;;;-144.57;100.00;62443.72;5052455;28;20040;-65
2023/04/19 03:03:26;;;;;;;8.82;6.35;;;;;;;-144.57;100.00;62443.72;5068936;28;20048;-67
2023/04/19 03:05:51;;;;;;;11.38;6.57;;;;;;;-144.57;100.00;62443.72;5055606;28;20037;-66
2023/04/19 03:08:17;;;;;;;10.65;6.10;;;;;;;-144.57;100.00;62443.72;5055565;28;20136;-66
2023/04/19 03:10:44;;;;;;;9.98;6.28;;;;;;;-144.57;100.00;62443.72;5072380;28;20045;-66
2023/04/19 03:13:10;;;;;;;10.38;6.28;;;;;;;-144.57;100.00;62443.72;5071034;28;20129;-67
2023/04/19 03:15:36;;;;;;;7.40;6.30;;;;;;;-144.57;100.00;62443.72;5071474;28;20468;-67
2023/04/19 03:18:02;;;;;;;9.18;5.75;;;;;;;-144.57;100.00;62443.72;5038956;28;20414;-66
2023/04/19 03:20:29;;;;;;;10.13;6.32;;;;;;;-144.57;100.00;62443.72;5071859;28;20040;-66
2023/04/19 03:22:56;;;;;;;10.88;6.85;;;;;;;-144.57;100.00;62443.72;5038795;28;20040;-66
2023/04/19 03:25:23;;;;;;;10.13;5.97;;;;;;;-144.57;100.00;62443.72;5072285;28;20130;-67
2023/04/19 03:27:57;;;;;;;9.73;6.35;;;;;;;-144.57;100.00;62443.72;5072069;28;20044;-66
2023/04/19 03:30:43;;;;;;;10.82;7.03;;;;;;;-144.57;100.00;62443.72;5072901;28;20047;-67
2023/04/19 03:33:09;;;;;;;10.88;6.03;;;;;;;-144.57;100.00;62443.72;5071687;28;20044;-67
2023/04/19 03:35:35;;;;;;;12.07;6.10;;;;;;;-144.57;100.00;62443.72;5038438;28;20113;-67
2023/04/19 03:38:08;;;;;;;9.25;6.50;;;;;;;-144.57;100.00;62443.72;5035912;28;20106;-68
2023/04/19 03:40:36;;;;;;;9.07;5.88;;;;;;;-144.57;100.00;62443.72;5051557;28;20049;-68
2023/04/19 03:43:02;;;;;;;8.25;5.95;;;;;;;-144.57;100.00;62443.72;5051516;28;20043;-68
2023/04/19 03:45:30;;;;;;;11.93;6.03;;;;;;;-144.57;100.00;62443.72;5051518;28;20043;-67
2023/04/19 03:47:56;;;;;;;10.57;6.20;;;;;;;-144.57;100.00;62443.72;5052760;28;20506;-67
2023/04/19 03:50:23;;;;;;;7.57;5.70;;;;;;;-144.57;100.00;62443.72;5051293;28;20413;-67
2023/04/19 03:52:54;;;;;;;8.57;6.07;;;;;;;-144.57;100.00;62443.72;5051422;28;20074;-66
2023/04/19 03:55:20;;;;;;;12.50;7.07;;;;;;;-144.57;100.00;62443.72;5051174;28;20501;-66
2023/04/19 03:57:46;;;;;;;11.20;6.65;;;;;;;-144.57;100.00;62443.72;5067822;28;20051;-67
2023/04/19 04:00:20;;;;;;;10.82;5.90;;;;;;;-144.57;100.00;62443.72;5052464;28;20048;-67
2023/04/19 04:02:54;;;;;;;10.75;5.47;;;;;;;-144.57;100.00;62443.72;5036659;28;20045;-67
2023/04/19 04:05:21;;;;;;;12.35;5.97;;;;;;;-144.57;100.00;62443.72;5070944;28;20036;-67
2023/04/19 04:07:47;;;;;;;10.02;5.90;;;;;;;-144.57;100.00;62443.72;5054130;28;20562;-67
2023/04/19 04:10:13;;;;;;;10.70;6.20;;;;;;;-144.57;100.00;62443.72;5071161;28;20048;-66
2023/04/19 04:12:41;;;;;;;10.00;5.82;;;;;;;-144.57;100.00;62443.72;5054546;28;20478;-66
2023/04/19 04:15:10;;;;;;;11.43;6.18;;;;;;;-144.57;100.00;62443.72;5070938;28;20044;-66
2023/04/19 04:17:41;;;;;;;11.82;6.15;;;;;;;-144.57;100.00;62443.72;5070693;28;20436;-67
2023/04/19 04:20:08;;;;;;;10.35;5.75;;;;;;;-144.57;100.00;62443.72;5071167;28;20049;-67
2023/04/19 04:22:40;;;;;;;10.30;5.50;;;;;;;-144.57;100.00;62443.72;5070782;28;20081;-67
2023/04/19 04:25:06;;;;;;;16.90;6.40;;;;;;;-144.57;100.00;62443.72;5070384;28;20056;-68
2023/04/19 04:27:38;;;;;;;11.18;5.75;;;;;;;-144.57;100.00;62443.72;5054439;28;20067;-70
2023/04/19 04:30:05;;;;;;;11.63;6.13;;;;;;;-144.57;100.00;62443.72;5021284;28;20063;-69
2023/04/19 04:32:35;;;;;;;12.77;6.03;;;;;;;-144.57;100.00;62443.72;5053384;28;20032;-69
2023/04/19 04:35:03;;;;;;;14.18;6.07;;;;;;;-144.57;100.00;62443.72;5070643;28;20051;-70
2023/04/19 04:37:39;;;;;;;12.23;5.38;;;;;;;-144.57;100.00;62443.72;5055272;28;20040;-67
2023/04/19 04:40:05;;;;;;;8.93;5.85;;;;;;;-144.57;100.00;62443.72;5054105;28;20048;-68
2023/04/19 04:42:32;;;;;;;11.90;5.55;;;;;;;-144.57;100.00;62443.72;5070818;28;20131;-70
2023/04/19 04:45:00;;;;;;;9.57;5.82;;;;;;;-144.57;100.00;62443.72;5053667;28;20045;-68
2023/04/19 04:47:31;;;;;;;10.10;5.47;;;;;;;-144.57;100.00;62443.72;5054307;28;20036;-68
2023/04/19 04:50:02;;;;;;;11.45;5.78;;;;;;;-144.57;100.00;62443.72;5071628;28;20064;-68
2023/04/19 04:52:29;;;;;;;14.70;6.20;;;;;;;-144.57;100.00;62443.72;5054144;28;20127;-68
2023/04/19 04:55:25;;;;;;;10.10;5.53;;;;;;;-144.57;100.00;62443.72;5061203;28;20147;-68
2023/04/19 04:57:52;;;;;;;6.82;5.10;;;;;;;-144.57;100.00;62443.72;5070027;28;20105;-69
2023/04/19 05:00:34;;;;;;;9.48;5.65;;;;;;;-144.57;100.00;62443.72;5069724;28;20398;-71
2023/04/19 05:03:06;;;;;;;13.50;5.78;;;;;;;-144.57;100.00;62443.72;5053072;28;20033;-68
2023/04/19 05:05:36;;;;;;;12.30;5.80;;;;;;;-144.57;100.00;62443.72;5053673;28;20171;-70
2023/04/19 05:08:02;;;;;;;9.73;6.40;;;;;;;-144.57;100.00;62443.72;5070236;28;20071;-74
2023/04/19 05:10:29;;;;;;;11.20;5.50;;;;;;;-144.57;100.00;62443.72;5020392;28;20074;-70
2023/04/19 05:12:55;;;;;;;11.80;5.72;;;;;;;-144.57;100.00;62443.72;5069832;28;20053;-74
2023/04/19 05:15:21;;;;;;;13.15;6.30;;;;;;;-144.57;100.00;62443.72;5036449;28;20443;-67
2023/04/19 05:17:50;;;;;;;10.85;5.82;;;;;;;-144.57;100.00;62443.72;5053678;28;20120;-65
2023/04/19 05:20:17;;;;;;;10.65;5.82;;;;;;;-144.57;100.00;62443.72;5071012;28;20409;-75
2023/04/19 05:22:45;;;;;;;17.13;5.78;;;;;;;-144.57;100.00;62443.72;5071222;28;20037;-73
2023/04/19 05:25:12;;;;;;;13.70;6.70;;;;;;;-144.57;100.00;62443.72;5036623;28;20032;-68
2023/04/19 05:27:38;;;;;;;14.05;5.68;;;;;;;-144.57;100.00;62443.72;5067794;28;20040;-66
2023/04/19 05:30:05;;;;;;;13.32;6.13;;;;;;;-144.57;100.00;62443.72;5041752;28;20057;-68
2023/04/19 05:32:34;;;;;;;18.08;7.47;;;;;;;-144.57;100.00;62443.72;5049979;28;20076;-66
2023/04/19 05:35:02;;;;;;;11.77;6.07;;;;;;;-144.57;100.00;62443.72;5032835;28;20077;-67
2023/04/19 05:37:30;;;;;;;8.90;5.25;;;;;;;-144.57;100.00;62443.72;5038481;28;20499;-67
2023/04/19 05:39:57;;;;;;;10.70;5.40;;;;;;;-144.57;100.00;62443.72;5050714;28;20124;-67
2023/04/19 05:42:24;;;;;;;11.52;6.47;;;;;;;-144.57;100.00;62443.72;5051478;28;20052;-66
2023/04/19 05:44:50;;;;;;;12.18;5.25;;;;;;;-144.57;100.00;62443.72;5033005;28;20041;-66
2023/04/19 05:47:16;;;;;;;13.77;5.25;;;;;;;-144.57;100.00;62443.72;5034132;28;20486;-67
2023/04/19 05:50:02;;;;;;;11.25;5.80;;;;;;;-144.57;100.00;62443.72;5037834;28;20086;-65
2023/04/19 05:52:32;;;;;;;13.20;6.25;;;;;;;-144.57;100.00;62443.72;5051544;28;20053;-66
2023/04/19 05:55:00;;;;;;;10.85;5.80;;;;;;;-144.57;100.00;62443.72;5051165;28;20060;-67
2023/04/19 05:57:29;;;;;;;;;;;;;;;-144.57;100.00;62443.72;5019533;28;20040;-65
2023/04/19 05:59:55;;;;;;;12.90;6.25;;;;;;;-144.57;100.00;62443.72;5050870;28;19952;-66
2023/04/19 06:02:24;;;;;;;10.48;5.82;;;;;;;-144.57;100.00;62443.72;5051236;28;20044;-65
2023/04/19 06:04:51;;;;;;;8.32;4.93;;;;;;;-144.57;100.00;62443.72;5067886;28;20432;-67
2023/04/19 06:07:17;;;;;;;9.90;4.97;;;;;;;-144.57;100.00;62443.72;5046301;28;20040;-66
2023/04/19 06:09:42;;;;;;;9.50;5.60;;;;;;;-144.57;100.00;62443.72;5062234;28;20094;-65
2023/04/19 06:12:09;;;;;;;10.55;5.28;;;;;;;-144.57;100.00;62443.72;5040789;28;20033;-67
2023/04/19 06:14:34;;;;;;;8.02;5.13;;;;;;;-144.57;100.00;62443.72;5043724;28;20064;-65
2023/04/19 06:17:00;;;;;;;13.52;5.95;;;;;;;-144.57;100.00;62443.72;5059694;28;20601;-67
2023/04/19 06:19:26;;;;;;;12.00;5.28;;;;;;;-144.57;100.00;62443.72;5042804;28;20055;-69
2023/04/19 06:21:52;;;;;;;15.70;5.57;;;;;;;-144.57;100.00;62443.72;5046122;28;20457;-67
2023/04/19 06:24:17;;;;;;;9.60;5.40;;;;;;;-144.57;100.00;62443.72;5062108;28;20045;-67
2023/04/19 06:26:43;;;;;;;9.60;5.15;;;;;;;-144.57;100.00;62443.72;5064018;28;20394;-66
2023/04/19 06:29:09;;;;;;;11.88;5.60;;;;;;;-144.57;100.00;62443.72;5058960;28;20150;-67
2023/04/19 06:31:35;;;;;;;11.98;5.32;;;;;;;-144.57;100.00;62443.72;5060329;28;20043;-69
2023/04/19 06:34:01;;;;;;;10.70;5.13;;;;;;;-144.57;100.00;62443.72;5060167;28;20371;-65
2023/04/19 06:36:26;;;;;;;8.77;5.05;;;;;;;-144.57;100.00;62443.72;5060537;28;20386;-64
2023/04/19 06:38:52;;;;;;;12.65;5.75;;;;;;;-144.57;100.00;62443.72;5057900;28;20820;-64
2023/04/19 06:41:18;;;;;;;8.52;5.25;;;;;;;-144.57;100.00;62443.72;5058885;28;20079;-65
2023/04/19 06:43:44;;;;;;;10.52;5.00;;;;;;;-144.57;100.00;62443.72;5063222;28;20052;-66
2023/04/19 06:46:10;;;;;;;12.65;5.55;;;;;;;-144.57;100.00;62443.72;5059021;28;20044;-65
2023/04/19 06:48:37;;;;;;;8.50;5.80;;;;;;;-144.57;100.00;62443.72;5058230;28;20161;-64
2023/04/19 06:51:03;;;;;;;10.48;5.45;;;;;;;-144.57;100.00;62443.72;5059508;28;20032;-65
2023/04/19 06:53:29;;;;;;;12.05;5.25;;;;;;;-144.57;100.00;62443.72;5056669;28;20595;-65
2023/04/19 06:56:03;;;;;;;13.07;5.50;;;;;;;-144.57;100.00;62443.72;5018696;28;20040;-66
2023/04/19 06:58:31;;;;;;;11.45;5.60;;;;;;;-144.57;100.00;62443.72;5059745;28;20164;-66
2023/04/19 07:00:57;;;;;;;7.43;5.45;;;;;;;-144.57;100.00;62443.72;5059828;28;20037;-66
2023/04/19 07:03:23;;;;;;;10.02;4.50;;;;;;;-144.57;100.00;62443.72;5058766;28;20045;-65
2023/04/19 07:05:51;;;;;;;9.45;5.45;;;;;;;-144.57;100.00;62443.72;5062090;28;20056;-64
2023/04/19 07:08:17;;;;;;;8.70;4.80;;;;;;;-144.57;100.00;62443.72;5047857;28;20065;-64
2023/04/19 07:10:42;;;;;;;12.40;4.90;;;;;;;-144.57;100.00;62443.72;5046176;28;20111;-65
2023/04/19 07:13:11;;;;;;;6.88;4.60;;;;;;;-144.57;100.00;62443.72;5029462;28;20048;-64
2023/04/19 07:15:37;;;;;;;7.15;4.70;;;;;;;-144.57;100.00;62443.72;5052759;28;20048;-65
2023/04/19 07:18:03;;;;;;;11.20;4.95;;;;;;;-144.57;100.00;62443.72;5050945;28;20040;-65
2023/04/19 07:20:30;;;;;;;11.00;5.22;;;;;;;-144.57;100.00;62443.72;5051376;28;20071;-64
2023/04/19 07:22:59;;;;;;;6.50;4.55;;;;;;;-144.57;100.00;62443.72;5053012;28;20041;-63
2023/04/19 07:25:25;;;;;;;18.88;6.07;;;;;;;-144.57;100.00;62443.72;5052545;28;20048;-64
2023/04/19 07:27:53;;;;;;;12.32;5.22;;;;;;;-144.57;100.00;62443.72;5034399;28;20091;-63
2023/04/19 07:30:19;;;;;;;8.68;5.30;;;;;;;-144.57;100.00;62443.72;5034755;28;20419;-64
2023/04/19 07:32:45;;;;;;;12.43;4.95;;;;;;;-144.57;100.00;62443.72;5067062;28;20040;-64
2023/04/19 07:35:11;;;;;;;7.22;4.18;;;;;;;-144.57;100.00;62443.72;5069621;28;20513;-65
2023/04/19 07:37:36;;;;;;;11.60;5.03;;;;;;;-144.57;100.00;62443.72;5072556;28;20044;-67
2023/04/19 07:40:04;;;;;;;13.60;4.82;;;;;;;-144.57;100.00;62443.72;5065611;28;20040;-65
2023/04/19 07:42:30;;;;;;;9.95;4.47;;;;;;;-144.57;100.00;62443.72;5056062;28;20036;-67
2023/04/19 07:44:56;;;;;;;10.88;4.50;;;;;;;-144.57;100.00;62443.72;5070889;28;20490;-65
2023/04/19 07:47:21;;;;;;;9.13;4.80;;;;;;;-144.57;100.00;62443.72;5072317;28;20037;-65
2023/04/19 07:49:51;;;;;;;19.95;5.15;;;;;;;-144.57;100.00;62443.72;5071101;28;20048;-66
2023/04/19 07:52:17;;;;;;;8.32;4.38;;;;;;;-144.57;100.00;62443.72;5071185;28;20080;-66
2023/04/19 07:54:43;;;;;;;9.00;4.28;;;;;;;-144.57;100.00;62443.72;5070128;28;20052;-67
2023/04/19 07:57:09;;;;;;;7.85;4.15;;;;;;;-144.57;100.00;62443.72;5072466;28;20041;-68
2023/04/19 07:59:34;;;;;;;9.07;5.10;;;;;;;-144.57;100.00;62443.72;5071844;28;20037;-66
2023/04/19 08:02:00;;;;;;;10.77;5.20;;;;;;;-144.57;100.00;62443.72;5071374;28;20036;-66
2023/04/19 08:04:26;;;;;;;7.50;4.47;;;;;;;-144.57;100.00;62443.72;5071866;28;20048;-66
2023/04/19 08:06:51;;;;;;;7.68;4.68;;;;;;;-144.57;100.00;62443.72;5071695;28;20068;-67
2023/04/19 08:09:18;;;;;;;7.22;4.57;;;;;;;-144.57;100.00;62443.72;5056135;28;20494;-65
2023/04/19 08:11:43;;;;;;;8.57;5.07;;;;;;;-144.57;100.00;62443.72;5069592;28;20036;-65
2023/04/19 08:14:09;;;;;;;13.50;4.72;;;;;;;-144.57;100.00;62443.72;5049971;28;20056;-65
2023/04/19 08:16:35;;;;;;;9.30;4.53;;;;;;;-144.57;100.00;62443.72;5062972;28;20493;-65
2023/04/19 08:19:01;;;;;;;8.80;4.30;;;;;;;-144.57;100.00;62443.72;5068511;28;20106;-65
2023/04/19 08:21:26;;;;;;;6.80;4.53;;;;;;;-144.57;100.00;62443.72;5071272;28;20050;-67
2023/04/19 08:23:52;;;;;;;10.45;4.70;;;;;;;-144.57;100.00;62443.72;5053941;28;20048;-67
2023/04/19 08:26:18;;;;;;;8.20;4.40;;;;;;;-144.57;100.00;62443.72;5061277;28;20070;-66
2023/04/19 08:28:44;;;;;;;6.57;4.10;;;;;;;-144.57;100.00;62443.72;5071636;28;20370;-65
2023/04/19 08:31:10;;;;;;;10.32;4.70;;;;;;;-144.57;100.00;62443.72;5069153;28;20040;-64
2023/04/19 08:33:37;;;;;;;8.45;4.80;;;;;;;-144.57;100.00;62443.72;5020735;28;20313;-65
2023/04/19 08:36:03;;;;;;;6.47;4.85;;;;;;;-144.57;100.00;62443.72;5036411;28;20037;-64
2023/04/19 08:38:29;;;;;;;7.57;4.38;;;;;;;-144.57;100.00;62443.72;5053344;28;20078;-65
2023/04/19 08:40:54;;;;;;;10.35;4.53;;;;;;;-144.57;100.00;62443.72;5058643;28;20132;-65
2023/04/19 08:43:20;;;;;;;8.48;4.57;;;;;;;-144.57;100.00;62443.72;5052568;28;20475;-65
2023/04/19 08:45:47;;;;;;;4.88;3.92;;;;;;;-144.57;100.00;62443.72;5051300;28;20056;-64
2023/04/19 08:48:14;;;;;;;11.98;4.38;;;;;;;-144.57;100.00;62443.72;5050068;28;20090;-64
2023/04/19 08:50:41;;;;;;;9.82;5.13;;;;;;;-144.57;100.00;62443.72;5070062;28;20048;-65
2023/04/19 08:53:08;;;;;;;7.85;4.45;;;;;;;-144.57;100.00;62443.72;5070190;28;20040;-68
2023/04/19 08:55:37;;;;;;;8.20;4.30;;;;;;;-144.57;100.00;62443.72;5071011;28;20048;-66
2023/04/19 08:58:03;;;;;;;12.35;4.60;;;;;;;-144.57;100.00;62443.72;5060827;28;20036;-65
2023/04/19 09:00:32;;;;;;;7.90;4.78;;;;;;;-144.57;100.00;62443.72;5060489;28;20047;-65
2023/04/19 09:02:58;;;;;;;7.80;4.70;;;;;;;-144.57;100.00;62443.72;5065820;28;20166;-65
2023/04/19 09:05:25;;;;;;;11.02;4.80;;;;;;;-144.57;100.00;62443.72;5035592;28;20517;-65
2023/04/19 09:07:51;;;;;;;10.98;5.20;;;;;;;-144.57;100.00;62443.72;5059365;28;20037;-65
2023/04/19 09:10:18;;;;;;;7.70;4.32;;;;;;;-144.57;100.00;62443.72;5060742;28;20131;-65
2023/04/19 09:13:03;;;;;;;10.27;4.75;;;;;;;-144.57;100.00;62443.72;5068983;28;20055;-65
2023/04/19 09:15:38;;;;;;;9.13;5.22;;;;;;;-144.57;100.00;62443.72;5068491;28;20044;-66
2023/04/19 09:18:06;;;;;;;11.90;5.15;;;;;;;-144.57;100.00;62443.72;5051825;28;20063;-64
2023/04/19 09:20:42;;;;;;;6.97;4.38;;;;;;;-144.57;100.00;62443.72;5069436;28;20040;-65
2023/04/19 09:23:14;;;;;;;8.05;4.75;;;;;;;-144.57;100.00;62443.72;5068038;28;20050;-64
2023/04/19 09:26:00;;;;;;;6.70;4.57;;;;;;;-144.57;100.00;62443.72;5051753;28;20494;-65
2023/04/19 09:28:30;;;;;;;6.35;4.30;;;;;;;-144.57;100.00;62443.72;5069263;28;20424;-63
2023/04/19 09:30:57;;;;;;;10.57;4.88;;;;;;;-144.57;100.00;62443.72;5069933;28;20044;-65
2023/04/19 09:33:33;;;;;;;8.45;5.00;;;;;;;-144.57;100.00;62443.72;5068797;28;20377;-64
2023/04/19 09:36:00;;;;;;;7.95;4.80;;;;;;;-144.57;100.00;62443.72;5052828;28;20045;-64
2023/04/19 09:38:26;;;;;;;9.75;5.00;;;;;;;-144.57;100.00;62443.72;5069810;28;20044;-64
2023/04/19 09:40:52;;;;;;;8.15;5.55;;;;;;;-144.57;100.00;62443.72;5036426;28;20041;-65
2023/04/19 09:43:27;;;;;;;7.60;4.63;;;;;;;-144.57;100.00;62443.72;5052845;28;20047;-65
2023/04/19 09:45:52;;;;;;;8.57;4.85;;;;;;;-144.57;100.00;62443.72;5069443;28;20410;-64
2023/04/19 09:48:18;;;;;;;12.50;5.80;;;;;;;-144.57;100.00;62443.72;5069991;28;20040;-64
2023/04/19 09:50:55;;;;;;;10.20;5.28;;;;;;;-144.57;100.00;62443.72;5070766;28;20059;-64
2023/04/19 09:53:23;;;;;;;7.47;5.00;;;;;;;-144.57;100.00;62443.72;5051525;28;20029;-65
2023/04/19 09:55:49;;;;;;;7.75;4.82;;;;;;;-144.57;100.00;62443.72;5068673;28;20045;-65
2023/04/19 09:58:16;;;;;;;7.60;4.97;;;;;;;-144.57;100.00;62443.72;5019032;28;20064;-64
2023/04/19 10:00:44;;;;;;;6.93;5.25;;;;;;;-144.57;100.00;62443.72;5071038;28;20444;-64
2023/04/19 10:03:10;;;;;;;6.97;5.00;;;;;;;-144.57;100.00;62443.72;5052805;28;20051;-64
2023/04/19 10:05:39;;;;;;;7.57;4.90;;;;;;;-144.57;100.00;62443.72;5069057;28;20114;-65
2023/04/19 10:08:10;;;;;;;10.82;5.38;;;;;;;-144.57;100.00;62443.72;5019983;28;20033;-65
2023/04/19 10:10:38;;;;;;;6.40;4.95;;;;;;;-144.57;100.00;62443.72;5068751;28;20098;-67
2023/04/19 10:13:07;;;;;;;8.57;5.10;;;;;;;-144.57;100.00;62443.72;5070153;28;22513;-65
2023/04/19 10:15:35;;;;;;;8.77;5.53;;;;;;;-144.57;100.00;62443.72;5070230;28;20059;-66
2023/04/19 10:18:03;;;;;;;12.50;4.95;;;;;;;-144.57;100.00;62443.72;5035555;28;20036;-65
2023/04/19 10:20:48;;;;;;;18.65;6.20;;;;;;;-144.57;100.00;62443.72;5036073;28;20052;-64
2023/04/19 10:23:14;;;;;;;5.90;4.30;;;;;;;-144.57;100.00;62443.72;5071459;28;20517;-65
2023/04/19 10:25:45;;;;;;;15.50;5.57;;;;;;;-144.57;100.00;62443.72;5072491;28;20067;-65
2023/04/19 10:28:11;;;;;;;7.63;4.38;;;;;;;-144.57;100.00;62443.72;5073835;28;20041;-65
2023/04/19 10:31:01;;;;;;;6.78;4.40;;;;;;;-144.57;100.00;62443.72;5066835;28;20060;-66
2023/04/19 10:33:30;;;;;;;7.28;4.47;;;;;;;-144.57;100.00;62443.72;5068510;28;20518;-66
2023/04/19 10:35:59;;;;;;;6.70;4.70;;;;;;;-144.57;100.00;62443.72;5072269;28;20044;-66
2023/04/19 10:38:50;;;;;;;10.73;4.85;;;;;;;-144.57;100.00;62443.72;5073368;28;20049;-67
2023/04/19 10:41:18;;;;;;;9.25;5.07;;;;;;;-144.57;100.00;62443.72;5072520;28;20048;-64
2023/04/19 10:43:47;;;;;;;7.45;5.53;;;;;;;-144.57;100.00;62443.72;5072470;28;20397;-66
2023/04/19 10:46:12;;;;;;;6.72;4.90;;;;;;;-144.57;100.00;62443.72;5055878;28;20123;-65
2023/04/19 10:48:42;;;;;;;9.23;5.20;;;;;;;-144.57;100.00;62443.72;5072283;28;20135;-64
2023/04/19 10:51:18;;;;;;;6.43;4.70;;;;;;;-144.57;100.00;62443.72;5070944;28;20055;-64
2023/04/19 10:53:47;;;;;;;7.82;4.90;;;;;;;-144.57;100.00;62443.72;5071249;28;20036;-65
2023/04/19 10:56:56;;;;;;;9.63;5.00;;;;;;;-144.57;100.00;62443.72;5071168;28;20074;-65
2023/04/19 10:59:22;;;;;;;5.18;4.00;;;;;;;-144.57;100.00;62443.72;5064507;28;20052;-65
2023/04/19 11:01:51;;;;;;;13.27;4.80;;;;;;;-144.57;100.00;62443.72;5053906;28;20048;-67
2023/04/19 11:04:29;;;;;;;9.90;4.30;;;;;;;-144.57;100.00;62443.72;5073239;28;20049;-66
2023/04/19 11:07:05;;;;;;;7.25;4.53;;;;;;;-144.57;100.00;62443.72;5070467;28;20417;-66